createdAt,value
2023-02-05T00:01:32.536Z,59.83
2023-02-05T00:03:59.494Z,59.80
2023-02-05T00:06:26.536Z,59.88
2023-02-05T00:08:53.788Z,59.91
2023-02-05T00:11:21.384Z,59.89
2023-02-05T00:13:48.816Z,59.87
2023-02-05T00:16:18.077Z,59.78
2023-02-05T00:18:45.375Z,59.98
2023-02-05T00:21:13.408Z,60.04
2023-02-05T00:23:41.242Z,60.10
2023-02-05T00:26:10.165Z,60.05
2023-02-05T00:28:38.247Z,60.08
2023-02-05T00:31:10.356Z,60.11
2023-02-05T00:33:38.122Z,60.10
2023-02-05T00:36:05.586Z,60.24
2023-02-05T00:38:32.862Z,60.21
2023-02-05T00:40:59.824Z,60.34
2023-02-05T00:43:26.879Z,60.37
2023-02-05T00:45:54.146Z,60.43
2023-02-05T00:48:21.206Z,60.29
2023-02-05T00:50:49.234Z,60.28
2023-02-05T00:53:17.111Z,60.22
2023-02-05T00:55:44.406Z,60.31
2023-02-05T00:58:11.828Z,60.31
2023-02-05T01:00:39.012Z,60.31
2023-02-05T01:03:06.073Z,60.29
2023-02-05T01:05:36.299Z,60.40
2023-02-05T01:08:04.873Z,60.16
2023-02-05T01:10:32.135Z,60.29
2023-02-05T01:12:59.656Z,60.28
2023-02-05T01:15:26.833Z,60.46
2023-02-05T01:17:54.088Z,60.62
2023-02-05T01:20:21.511Z,60.57
2023-02-05T01:22:49.124Z,60.72
2023-02-05T01:25:16.882Z,60.46
2023-02-05T01:27:45.201Z,60.54
2023-02-05T01:30:14.269Z,60.12
2023-02-05T01:32:42.586Z,60.08
2023-02-05T01:35:09.713Z,59.85
2023-02-05T01:37:37.069Z,59.87
2023-02-05T01:40:08.339Z,59.81
2023-02-05T01:42:37.514Z,59.70
2023-02-05T01:45:32.966Z,59.84
2023-02-05T01:48:02.000Z,59.74
2023-02-05T01:50:29.271Z,59.62
2023-02-05T01:52:59.177Z,59.82
2023-02-05T01:55:26.748Z,59.84
2023-02-05T01:57:54.552Z,59.85
2023-02-05T02:00:23.101Z,59.81
2023-02-05T02:02:50.469Z,59.78
2023-02-05T02:05:18.809Z,59.80
2023-02-05T02:07:46.202Z,59.55
2023-02-05T02:10:14.501Z,59.74
2023-02-05T02:12:41.869Z,59.75
2023-02-05T02:15:17.914Z,59.59
2023-02-05T02:17:46.703Z,59.76
2023-02-05T02:20:15.837Z,59.69
2023-02-05T02:23:08.850Z,59.89
2023-02-05T02:26:04.704Z,59.89
2023-02-05T02:28:51.049Z,59.94
2023-02-05T02:31:19.262Z,59.94
2023-02-05T02:33:48.434Z,60.04
2023-02-05T02:36:35.049Z,59.97
2023-02-05T02:39:06.887Z,60.36
2023-02-05T02:41:49.219Z,60.39
2023-02-05T02:45:06.987Z,60.06
2023-02-05T02:47:38.544Z,59.99
2023-02-05T02:50:19.782Z,59.89
2023-02-05T02:52:48.348Z,60.04
2023-02-05T02:55:15.478Z,60.03
2023-02-05T02:57:45.604Z,60.07
2023-02-05T03:00:14.321Z,60.14
2023-02-05T03:02:42.054Z,60.17
2023-02-05T03:05:11.253Z,60.23
2023-02-05T03:07:44.676Z,60.50
2023-02-05T03:10:19.953Z,60.50
2023-02-05T03:12:47.778Z,60.66
2023-02-05T03:15:14.971Z,60.54
2023-02-05T03:17:43.423Z,60.46
2023-02-05T03:20:27.703Z,60.51
2023-02-05T03:22:55.902Z,60.62
2023-02-05T03:25:22.982Z,60.73
2023-02-05T03:27:51.646Z,60.81
2023-02-05T03:30:18.879Z,60.80
2023-02-05T03:33:24.120Z,60.92
2023-02-05T03:36:12.166Z,61.05
2023-02-05T03:38:51.976Z,60.92
2023-02-05T03:41:56.077Z,61.08
2023-02-05T03:44:38.752Z,61.03
2023-02-05T03:47:16.655Z,61.20
2023-02-05T03:50:08.173Z,61.30
2023-02-05T03:52:37.634Z,61.29
2023-02-05T03:55:07.348Z,61.22
2023-02-05T03:57:49.153Z,61.25
2023-02-05T04:00:19.274Z,61.09
2023-02-05T04:02:46.657Z,61.22
2023-02-05T04:05:20.633Z,61.20
2023-02-05T04:07:49.390Z,61.26
2023-02-05T04:10:17.799Z,61.21
2023-02-05T04:12:46.704Z,61.15
2023-02-05T04:15:13.672Z,61.12
2023-02-05T04:17:43.848Z,61.21
2023-02-05T04:20:12.582Z,61.01
2023-02-05T04:22:39.599Z,60.86
2023-02-05T04:25:09.754Z,60.94
2023-02-05T04:27:36.618Z,60.90
2023-02-05T04:30:06.281Z,60.72
2023-02-05T04:32:34.854Z,60.95
2023-02-05T04:35:02.426Z,60.84
2023-02-05T04:37:29.689Z,60.97
2023-02-05T04:39:56.988Z,60.94
2023-02-05T04:42:24.136Z,61.01
2023-02-05T04:44:52.416Z,60.92
2023-02-05T04:47:19.584Z,60.87
2023-02-05T04:49:46.437Z,60.94
2023-02-05T04:52:13.487Z,61.07
2023-02-05T04:54:40.599Z,61.16
2023-02-05T04:57:07.616Z,61.19
2023-02-05T04:59:34.641Z,61.25
2023-02-05T05:02:01.876Z,61.21
2023-02-05T05:04:30.572Z,61.34
2023-02-05T05:06:58.896Z,61.15
2023-02-05T05:09:26.625Z,61.11
2023-02-05T05:11:54.522Z,61.15
2023-02-05T05:14:22.394Z,61.26
2023-02-05T05:16:53.277Z,61.06
2023-02-05T05:19:20.492Z,61.14
2023-02-05T05:21:47.636Z,61.22
2023-02-05T05:24:14.990Z,61.17
2023-02-05T05:26:44.578Z,61.21
2023-02-05T05:29:15.314Z,61.28
2023-02-05T05:31:44.776Z,61.15
2023-02-05T05:34:11.823Z,61.15
2023-02-05T05:36:43.044Z,61.24
2023-02-05T05:39:28.843Z,61.09
2023-02-05T05:42:14.424Z,61.17
2023-02-05T05:44:41.567Z,60.98
2023-02-05T05:47:08.497Z,61.04
2023-02-05T05:49:35.884Z,61.09
2023-02-05T05:52:02.852Z,60.99
2023-02-05T05:54:29.897Z,60.94
2023-02-05T05:56:56.702Z,61.02
2023-02-05T05:59:24.052Z,60.96
2023-02-05T06:01:52.163Z,60.85
2023-02-05T06:04:19.230Z,60.89
2023-02-05T06:06:46.053Z,60.83
2023-02-05T06:09:14.649Z,60.97
2023-02-05T06:11:41.459Z,60.93
2023-02-05T06:14:09.782Z,60.95
2023-02-05T06:16:38.844Z,60.89
2023-02-05T06:19:05.819Z,60.86
2023-02-05T06:21:33.794Z,60.87
2023-02-05T06:24:00.740Z,60.89
2023-02-05T06:26:28.596Z,60.90
2023-02-05T06:28:56.707Z,60.84
2023-02-05T06:31:23.795Z,60.85
2023-02-05T06:33:51.827Z,60.67
2023-02-05T06:36:18.645Z,60.55
2023-02-05T06:38:45.626Z,60.51
2023-02-05T06:41:14.197Z,60.60
2023-02-05T06:43:40.977Z,60.49
2023-02-05T06:46:08.011Z,60.41
2023-02-05T06:48:34.865Z,60.54
2023-02-05T06:51:01.930Z,60.62
2023-02-05T06:53:28.828Z,60.61
2023-02-05T06:55:59.281Z,60.60
2023-02-05T06:58:26.247Z,60.57
2023-02-05T07:00:53.305Z,60.51
2023-02-05T07:03:20.067Z,60.42
2023-02-05T07:05:47.528Z,60.50
2023-02-05T07:08:14.488Z,60.31
2023-02-05T07:10:41.309Z,60.21
2023-02-05T07:13:08.254Z,60.15
2023-02-05T07:15:37.132Z,59.98
2023-02-05T07:18:04.601Z,59.93
2023-02-05T07:20:33.053Z,59.95
2023-02-05T07:23:00.356Z,59.93
2023-02-05T07:25:27.683Z,59.92
2023-02-05T07:27:54.803Z,59.84
2023-02-05T07:30:21.778Z,59.66
2023-02-05T07:32:48.879Z,59.60
2023-02-05T07:35:16.894Z,59.76
2023-02-05T07:37:43.891Z,59.57
2023-02-05T07:40:12.106Z,59.38
2023-02-05T07:42:39.446Z,59.42
2023-02-05T07:45:08.325Z,59.45
2023-02-05T07:47:35.264Z,59.22
2023-02-05T07:50:02.126Z,59.21
2023-02-05T07:52:29.224Z,59.12
2023-02-05T07:54:55.994Z,59.28
2023-02-05T07:57:23.291Z,59.22
2023-02-05T07:59:50.212Z,59.17
2023-02-05T08:02:17.055Z,58.95
2023-02-05T08:04:44.117Z,58.85
2023-02-05T08:07:12.381Z,58.92
2023-02-05T08:09:39.426Z,58.83
2023-02-05T08:12:06.730Z,58.81
2023-02-05T08:14:36.782Z,58.50
2023-02-05T08:17:05.700Z,58.43
2023-02-05T08:19:33.052Z,58.57
2023-02-05T08:22:01.573Z,58.41
2023-02-05T08:24:28.716Z,58.16
2023-02-05T08:26:55.565Z,58.23
2023-02-05T08:29:22.621Z,58.24
2023-02-05T08:31:49.833Z,58.05
2023-02-05T08:34:19.849Z,58.15
2023-02-05T08:36:48.104Z,58.11
2023-02-05T08:39:14.971Z,58.35
2023-02-05T08:41:42.278Z,58.46
2023-02-05T08:44:09.480Z,58.59
2023-02-05T08:46:49.258Z,58.73
2023-02-05T08:49:17.046Z,58.85
2023-02-05T08:51:44.111Z,58.78
2023-02-05T08:56:54.924Z,58.79
2023-02-05T08:59:22.647Z,58.56
2023-02-05T09:01:50.963Z,58.54
2023-02-05T09:04:19.917Z,58.61
2023-02-05T09:06:46.720Z,58.55
2023-02-05T09:09:14.395Z,58.49
2023-02-05T09:11:46.103Z,58.54
2023-02-05T09:14:13.171Z,58.74
2023-02-05T09:16:40.926Z,58.64
2023-02-05T09:19:08.368Z,58.46
2023-02-05T09:21:38.646Z,58.92
2023-02-05T09:24:06.399Z,58.99
2023-02-05T09:26:35.435Z,59.15
2023-02-05T09:29:02.858Z,59.33
2023-02-05T09:31:33.741Z,59.32
2023-02-05T09:34:02.750Z,59.05
2023-02-05T09:36:29.882Z,58.96
2023-02-05T09:39:13.015Z,59.02
2023-02-05T09:42:05.009Z,59.08
2023-02-05T09:44:41.244Z,58.85
2023-02-05T09:47:16.804Z,58.59
2023-02-05T09:49:56.058Z,58.25
2023-02-05T09:52:26.870Z,58.26
2023-02-05T09:54:56.306Z,58.17
2023-02-05T09:57:50.309Z,58.10
2023-02-05T10:00:21.132Z,57.92
2023-02-05T10:03:27.690Z,57.67
2023-02-05T10:06:00.760Z,57.89
2023-02-05T10:08:41.261Z,57.85
2023-02-05T10:11:17.831Z,58.17
2023-02-05T10:13:47.012Z,58.07
2023-02-05T10:16:26.422Z,58.24
2023-02-05T10:19:20.448Z,58.29
2023-02-05T10:22:12.274Z,58.33
2023-02-05T10:25:00.955Z,58.51
2023-02-05T10:28:05.499Z,58.64
2023-02-05T10:30:58.446Z,58.67
2023-02-05T10:33:46.524Z,58.54
2023-02-05T10:36:13.890Z,58.43
2023-02-05T10:38:44.827Z,58.05
2023-02-05T10:41:14.511Z,57.86
2023-02-05T10:43:53.144Z,57.64
2023-02-05T10:46:20.028Z,57.24
2023-02-05T10:49:01.310Z,57.32
2023-02-05T10:51:46.553Z,57.48
2023-02-05T10:54:30.867Z,57.41
2023-02-05T10:56:58.393Z,57.26
2023-02-05T10:59:35.932Z,57.14
2023-02-05T11:02:06.198Z,57.04
2023-02-05T11:04:42.185Z,57.10
2023-02-05T11:07:13.254Z,57.21
2023-02-05T11:09:40.741Z,57.27
2023-02-05T11:12:29.186Z,57.14
2023-02-05T11:15:02.796Z,57.07
2023-02-05T11:17:37.685Z,57.21
2023-02-05T11:20:07.689Z,57.54
2023-02-05T11:22:40.097Z,57.65
2023-02-05T11:25:25.851Z,57.58
2023-02-05T11:27:57.238Z,57.64
2023-02-05T11:30:53.291Z,57.73
2023-02-05T11:33:25.057Z,57.96
2023-02-05T11:36:07.571Z,57.86
2023-02-05T11:38:56.758Z,57.78
2023-02-05T11:41:30.677Z,57.77
2023-02-05T11:43:59.670Z,57.72
2023-02-05T11:46:28.396Z,57.57
2023-02-05T11:49:02.157Z,57.55
2023-02-05T11:51:35.758Z,57.77
2023-02-05T11:54:31.120Z,58.01
2023-02-05T11:57:05.673Z,58.40
2023-02-05T11:59:34.421Z,58.70
2023-02-05T12:02:29.361Z,59.06
2023-02-05T12:05:22.505Z,59.20
2023-02-05T12:08:01.175Z,59.45
2023-02-05T12:10:43.168Z,59.66
2023-02-05T12:13:22.345Z,59.73
2023-02-05T12:16:11.735Z,59.85
2023-02-05T12:19:14.336Z,59.83
2023-02-05T12:21:56.748Z,59.92
2023-02-05T12:24:47.314Z,59.59
2023-02-05T12:27:53.725Z,59.72
2023-02-05T12:30:30.529Z,60.06
2023-02-05T12:33:28.562Z,60.00
2023-02-05T12:36:07.867Z,60.01
2023-02-05T12:38:42.479Z,59.98
2023-02-05T12:41:22.680Z,59.85
2023-02-05T12:43:49.689Z,59.78
2023-02-05T12:46:27.822Z,59.95
2023-02-05T12:49:05.324Z,59.79
2023-02-05T12:51:54.597Z,59.84
2023-02-05T12:54:24.514Z,59.82
2023-02-05T12:57:05.266Z,59.97
2023-02-05T12:59:45.939Z,60.04
2023-02-05T13:02:22.130Z,59.61
2023-02-05T13:04:51.434Z,59.17
2023-02-05T13:07:23.248Z,59.19
2023-02-05T13:09:55.114Z,58.95
2023-02-05T13:12:24.356Z,58.36
2023-02-05T13:15:15.304Z,58.02
2023-02-05T13:18:04.064Z,57.83
2023-02-05T13:21:01.188Z,57.47
2023-02-05T13:23:59.312Z,57.51
2023-02-05T13:26:56.179Z,57.36
2023-02-05T13:29:25.231Z,57.16
2023-02-05T13:31:54.686Z,57.16
2023-02-05T13:34:22.897Z,57.37
2023-02-05T13:37:12.681Z,57.31
2023-02-05T13:39:48.174Z,57.67
2023-02-05T13:42:36.639Z,57.90
2023-02-05T13:45:33.164Z,58.21
2023-02-05T13:48:12.493Z,58.36
2023-02-05T13:50:48.657Z,58.62
2023-02-05T13:53:32.418Z,58.88
2023-02-05T13:56:15.262Z,59.00
2023-02-05T13:58:45.735Z,59.04
2023-02-05T14:01:28.984Z,59.27
2023-02-05T14:03:59.773Z,59.49
2023-02-05T14:06:29.860Z,59.73
2023-02-05T14:09:03.089Z,60.03
2023-02-05T14:12:03.032Z,60.10
2023-02-05T14:14:34.453Z,60.33
2023-02-05T14:17:32.737Z,60.61
2023-02-05T14:20:14.728Z,60.81
2023-02-05T14:22:43.004Z,60.88
2023-02-05T14:25:35.162Z,61.12
2023-02-05T14:28:28.199Z,61.25
2023-02-05T14:30:59.037Z,61.40
2023-02-05T14:33:37.162Z,61.65
2023-02-05T14:36:22.600Z,61.69
2023-02-05T14:38:54.914Z,61.92
2023-02-05T14:41:31.161Z,62.02
2023-02-05T14:44:05.430Z,62.19
2023-02-05T14:46:42.923Z,62.05
2023-02-05T14:49:41.146Z,62.14
2023-02-05T14:52:36.780Z,62.23
2023-02-05T14:55:31.140Z,62.41
2023-02-05T14:58:03.667Z,62.61
2023-02-05T15:00:32.231Z,62.59
2023-02-05T15:03:05.469Z,62.59
2023-02-05T15:05:58.523Z,62.66
2023-02-05T15:08:48.742Z,62.81
2023-02-05T15:11:43.130Z,63.07
2023-02-05T15:14:22.155Z,63.01
2023-02-05T15:17:04.570Z,63.03
2023-02-05T15:19:33.298Z,62.84
2023-02-05T15:22:00.326Z,62.63
2023-02-05T15:24:27.543Z,62.60
2023-02-05T15:27:03.261Z,62.61
2023-02-05T15:29:34.752Z,62.48
2023-02-05T15:32:26.126Z,62.43
2023-02-05T15:35:21.752Z,62.54
2023-02-05T15:37:50.882Z,62.54
2023-02-05T15:40:32.036Z,62.46
2023-02-05T15:43:00.321Z,62.22
2023-02-05T15:45:28.675Z,62.38
2023-02-05T15:48:02.992Z,62.34
2023-02-05T15:50:30.682Z,62.31
2023-02-05T15:52:57.964Z,62.33
2023-02-05T15:55:27.153Z,62.23
2023-02-05T15:57:58.889Z,62.13
2023-02-05T16:00:28.412Z,62.00
2023-02-05T16:03:02.338Z,62.09
2023-02-05T16:05:30.702Z,62.04
2023-02-05T16:07:58.469Z,62.14
2023-02-05T16:10:30.052Z,62.22
2023-02-05T16:13:28.679Z,62.38
2023-02-05T16:16:17.604Z,62.42
2023-02-05T16:18:48.971Z,62.39
2023-02-05T16:21:23.580Z,62.59
2023-02-05T16:23:56.782Z,62.50
2023-02-05T16:26:39.644Z,62.37
2023-02-05T16:29:11.668Z,62.30
2023-02-05T16:31:47.139Z,62.24
2023-02-05T16:34:17.360Z,61.92
2023-02-05T16:36:47.613Z,61.86
2023-02-05T16:39:32.004Z,61.72
2023-02-05T16:42:04.743Z,61.71
2023-02-05T16:44:35.124Z,61.48
2023-02-05T16:47:16.338Z,61.02
2023-02-05T16:49:45.213Z,60.78
2023-02-05T16:52:35.195Z,60.54
2023-02-05T16:55:14.487Z,60.17
2023-02-05T16:57:41.802Z,60.07
2023-02-05T17:00:27.425Z,59.84
2023-02-05T17:02:57.157Z,59.83
2023-02-05T17:05:35.143Z,59.68
2023-02-05T17:08:07.799Z,59.49
2023-02-05T17:10:54.872Z,59.31
2023-02-05T17:13:41.580Z,59.21
2023-02-05T17:16:31.237Z,59.24
2023-02-05T17:18:59.570Z,59.35
2023-02-05T17:21:33.853Z,59.37
2023-02-05T17:24:02.562Z,59.34
2023-02-05T17:26:32.390Z,59.06
2023-02-05T17:29:01.355Z,58.92
2023-02-05T17:31:36.222Z,58.87
2023-02-05T17:34:03.286Z,58.58
2023-02-05T17:36:30.224Z,58.50
2023-02-05T17:38:57.036Z,57.95
2023-02-05T17:41:46.751Z,57.16
2023-02-05T17:44:15.431Z,57.18
2023-02-05T17:46:43.156Z,56.90
2023-02-05T17:49:10.450Z,56.82
2023-02-05T17:51:42.164Z,56.77
2023-02-05T17:54:16.628Z,56.74
2023-02-05T17:56:44.289Z,56.74
2023-02-05T17:59:12.702Z,56.92
2023-02-05T18:01:40.211Z,57.00
2023-02-05T18:04:07.273Z,57.17
2023-02-05T18:06:35.921Z,57.23
2023-02-05T18:09:03.229Z,57.43
2023-02-05T18:11:33.442Z,57.58
2023-02-05T18:14:01.432Z,57.40
2023-02-05T18:16:29.105Z,57.28
2023-02-05T18:18:56.078Z,57.24
2023-02-05T18:21:24.213Z,56.85
2023-02-05T18:23:54.352Z,56.72
2023-02-05T18:26:21.439Z,56.45
2023-02-05T18:28:49.670Z,56.39
2023-02-05T18:31:16.856Z,56.71
2023-02-05T18:33:45.841Z,56.59
2023-02-05T18:36:13.322Z,56.75
2023-02-05T18:38:42.676Z,56.86
2023-02-05T18:41:17.622Z,56.89
2023-02-05T18:43:44.997Z,57.02
2023-02-05T18:46:13.851Z,57.01
2023-02-05T18:48:41.031Z,56.87
2023-02-05T18:51:11.466Z,56.97
2023-02-05T18:53:42.683Z,56.87
2023-02-05T18:56:15.798Z,56.88
2023-02-05T18:58:43.914Z,56.88
2023-02-05T19:01:12.536Z,56.99
2023-02-05T19:03:41.026Z,56.84
2023-02-05T19:06:09.812Z,57.02
2023-02-05T19:08:37.292Z,56.84
2023-02-05T19:11:11.018Z,56.89
2023-02-05T19:13:38.114Z,56.77
2023-02-05T19:16:12.270Z,56.71
2023-02-05T19:18:40.456Z,56.67
2023-02-05T19:21:10.425Z,56.61
2023-02-05T19:23:39.304Z,56.45
2023-02-05T19:26:08.587Z,56.43
2023-02-05T19:28:35.921Z,56.28
2023-02-05T19:31:04.300Z,56.24
2023-02-05T19:33:32.301Z,56.03
2023-02-05T19:36:00.120Z,55.88
2023-02-05T19:38:27.191Z,55.92
2023-02-05T19:40:54.251Z,55.83
2023-02-05T19:43:22.143Z,55.71
2023-02-05T19:45:49.032Z,55.65
2023-02-05T19:48:17.561Z,55.62
2023-02-05T19:50:44.838Z,55.70
2023-02-05T19:53:13.692Z,55.53
2023-02-05T19:55:41.092Z,55.37
2023-02-05T19:58:08.512Z,55.37
2023-02-05T20:00:35.937Z,55.39
2023-02-05T20:03:03.355Z,55.55
2023-02-05T20:05:30.305Z,55.59
2023-02-05T20:07:58.121Z,55.53
2023-02-05T20:10:25.226Z,55.63
2023-02-05T20:12:52.943Z,55.78
2023-02-05T20:15:20.301Z,55.92
2023-02-05T20:17:48.735Z,56.04
2023-02-05T20:20:32.671Z,56.26
2023-02-05T20:23:00.333Z,56.43
2023-02-05T20:25:27.135Z,56.73
2023-02-05T20:27:55.933Z,56.71
2023-02-05T20:30:42.108Z,56.95
2023-02-05T20:33:09.076Z,57.17
2023-02-05T20:35:36.926Z,57.37
2023-02-05T20:38:03.979Z,57.56
2023-02-05T20:40:31.251Z,57.62
2023-02-05T20:42:59.376Z,57.77
2023-02-05T20:45:26.618Z,57.76
2023-02-05T20:47:53.637Z,57.92
2023-02-05T20:50:20.698Z,57.84
2023-02-05T20:52:48.087Z,57.69
2023-02-05T20:55:15.262Z,57.63
2023-02-05T20:57:45.487Z,57.82
2023-02-05T21:00:13.223Z,57.79
2023-02-05T21:02:41.565Z,57.71
2023-02-05T21:05:08.608Z,57.72
2023-02-05T21:07:41.213Z,57.64
2023-02-05T21:10:09.812Z,57.61
2023-02-05T21:12:36.802Z,57.49
2023-02-05T21:15:08.151Z,57.48
2023-02-05T21:17:39.532Z,57.38
2023-02-05T21:20:07.098Z,57.44
2023-02-05T21:22:34.511Z,57.42
2023-02-05T21:25:01.619Z,57.38
2023-02-05T21:27:28.954Z,57.47
2023-02-05T21:29:55.874Z,57.49
2023-02-05T21:32:22.843Z,57.73
2023-02-05T21:34:49.944Z,57.64
2023-02-05T21:37:17.050Z,57.63
2023-02-05T21:39:45.049Z,57.71
2023-02-05T21:42:12.036Z,57.79
2023-02-05T21:44:39.460Z,57.85
2023-02-05T21:47:06.391Z,57.87
2023-02-05T21:49:38.306Z,57.77
2023-02-05T21:52:05.298Z,57.75
2023-02-05T21:54:32.844Z,57.71
2023-02-05T21:56:59.814Z,57.71
2023-02-05T21:59:26.738Z,57.71
2023-02-05T22:01:53.834Z,57.76
2023-02-05T22:04:20.785Z,57.73
2023-02-05T22:06:47.895Z,57.68
2023-02-05T22:09:16.149Z,57.60
2023-02-05T22:11:43.659Z,57.67
2023-02-05T22:14:10.657Z,57.67
2023-02-05T22:16:37.652Z,57.54
2023-02-05T22:19:06.302Z,57.55
2023-02-05T22:21:40.425Z,57.55
2023-02-05T22:24:07.957Z,57.67
2023-02-05T22:26:36.966Z,57.60
2023-02-05T22:29:05.812Z,57.57
2023-02-05T22:31:33.678Z,57.57
2023-02-05T22:34:02.215Z,57.59
2023-02-05T22:36:30.464Z,57.51
2023-02-05T22:38:58.838Z,57.55
2023-02-05T22:41:28.521Z,57.69
2023-02-05T22:43:56.147Z,57.69
2023-02-05T22:46:27.668Z,57.80
2023-02-05T22:48:54.899Z,57.84
2023-02-05T22:51:24.872Z,57.76
2023-02-05T22:53:54.273Z,57.85
2023-02-05T22:56:21.932Z,57.88
2023-02-05T22:58:49.648Z,58.09
2023-02-05T23:01:28.135Z,58.02
2023-02-05T23:03:56.134Z,58.21
2023-02-05T23:06:30.769Z,58.35
2023-02-05T23:09:02.814Z,58.46
2023-02-05T23:11:32.097Z,58.58
2023-02-05T23:14:03.005Z,58.95
2023-02-05T23:16:32.199Z,59.12
2023-02-05T23:19:01.143Z,59.24
2023-02-05T23:21:29.259Z,59.19
2023-02-05T23:23:57.006Z,59.32
2023-02-05T23:26:28.463Z,59.36
2023-02-05T23:28:55.762Z,59.31
2023-02-05T23:31:23.513Z,59.34
2023-02-05T23:33:50.963Z,59.38
2023-02-05T23:36:17.802Z,59.41
2023-02-05T23:38:44.681Z,59.42
2023-02-05T23:41:11.897Z,59.46
2023-02-05T23:43:42.210Z,59.66
2023-02-05T23:46:09.199Z,59.58
2023-02-05T23:48:41.318Z,59.75
2023-02-05T23:51:08.262Z,59.59
2023-02-05T23:53:35.476Z,59.62
2023-02-05T23:56:02.947Z,59.62
2023-02-05T23:58:30.247Z,59.53
